Time,TemperatureF,DewpointF,PressureIn,WindDirection,WindDirectionDegrees,WindSpeedMPH,WindSpeedGustMPH,Humidity,HourlyPrecipIn,Conditions,Clouds,dailyrainin,SoftwareType,DateUTC
2013-09-13 00:12:00,70.1,59.0,29.81,ESE,107,9.0,19.0,67,0.00,,,0.00,weatherlink.com 1.10,2013-09-13 05:12:00,
2013-09-13 00:27:00,69.8,59.0,29.81,ESE,110,7.0,17.0,68,0.00,,,0.00,weatherlink.com 1.10,2013-09-13 05:27:00,
2013-09-13 00:42:00,69.6,59.0,29.81,ENE,63,5.0,16.0,68,0.00,,,0.00,weatherlink.com 1.10,2013-09-13 05:42:00,
2013-09-13 00:57:00,69.3,58.0,29.80,ESE,119,4.0,12.0,68,0.00,,,0.00,weatherlink.com 1.10,2013-09-13 05:57:00,
2013-09-13 01:12:00,69.3,59.0,29.80,SSE,150,4.0,15.0,69,0.00,,,0.00,weatherlink.com 1.10,2013-09-13 06:12:00,
2013-09-13 01:27:00,68.9,58.0,29.80,ESE,120,5.0,10.0,68,0.00,,,0.00,weatherlink.com 1.10,2013-09-13 06:27:00,
2013-09-13 01:42:00,68.8,58.0,29.79,ESE,123,9.0,16.0,68,0.00,,,0.00,weatherlink.com 1.10,2013-09-13 06:42:00,
2013-09-13 01:57:00,68.7,58.0,29.79,SSE,147,8.0,14.0,68,0.00,,,0.00,weatherlink.com 1.10,2013-09-13 06:57:00,
2013-09-13 02:12:00,68.9,57.0,29.79,ESE,123,2.0,17.0,66,0.00,,,0.00,weatherlink.com 1.10,2013-09-13 07:12:00,
2013-09-13 02:27:00,68.6,57.0,29.79,East,87,6.0,14.0,67,0.00,,,0.00,weatherlink.com 1.10,2013-09-13 07:27:00,
2013-09-13 02:42:00,68.5,57.0,29.80,ESE,112,5.0,13.0,68,0.00,,,0.00,weatherlink.com 1.10,2013-09-13 07:42:00,
2013-09-13 02:57:00,68.1,58.0,29.79,East,91,5.0,10.0,69,0.00,,,0.00,weatherlink.com 1.10,2013-09-13 07:57:00,
2013-09-13 03:12:00,67.7,58.0,29.79,ESE,105,4.0,9.0,71,0.00,,,0.00,weatherlink.com 1.10,2013-09-13 08:12:00,
2013-09-13 03:42:00,67.6,58.0,29.79,ESE,107,3.0,9.0,72,0.00,,,0.00,weatherlink.com 1.10,2013-09-13 08:42:00,
2013-09-13 03:57:00,67.2,58.0,29.79,ESE,120,4.0,9.0,73,0.00,,,0.00,weatherlink.com 1.10,2013-09-13 08:57:00,
2013-09-13 04:12:00,66.9,58.0,29.78,ESE,123,5.0,8.0,74,0.00,,,0.00,weatherlink.com 1.10,2013-09-13 09:12:00,
2013-09-13 04:27:00,66.6,58.0,29.78,ESE,107,0.0,5.0,75,0.00,,,0.00,weatherlink.com 1.10,2013-09-13 09:27:00,
2013-09-13 04:42:00,65.2,58.0,29.79,ENE,68,1.0,2.0,77,0.00,,,0.00,weatherlink.com 1.10,2013-09-13 09:42:00,
2013-09-13 04:57:00,65.0,58.0,29.78,ENE,69,0.0,0.0,78,0.00,,,0.00,weatherlink.com 1.10,2013-09-13 09:57:00,
2013-09-13 05:12:00,65.2,58.0,29.78,ENE,69,0.0,0.0,78,0.00,,,0.00,weatherlink.com 1.10,2013-09-13 10:12:00,
2013-09-13 05:27:00,64.7,58.0,29.78,ENE,69,0.0,0.0,80,0.00,,,0.00,weatherlink.com 1.10,2013-09-13 10:27:00,
2013-09-13 05:42:00,64.4,58.0,29.78,ENE,69,0.0,0.0,80,0.00,,,0.00,weatherlink.com 1.10,2013-09-13 10:42:00,
2013-09-13 05:57:00,64.2,58.0,29.79,ENE,69,0.0,0.0,81,0.00,,,0.00,weatherlink.com 1.10,2013-09-13 10:57:00,
2013-09-13 06:13:00,63.7,58.0,29.79,ENE,69,0.0,0.0,82,0.00,,,0.00,weatherlink.com 1.10,2013-09-13 11:13:00,
2013-09-13 06:28:00,63.5,58.0,29.79,ENE,69,0.0,0.0,82,0.00,,,0.00,weatherlink.com 1.10,2013-09-13 11:28:00,
2013-09-13 06:43:00,63.5,58.0,29.79,ENE,69,0.0,0.0,82,0.00,,,0.00,weatherlink.com 1.10,2013-09-13 11:43:00,
2013-09-13 06:58:00,63.1,58.0,29.80,ENE,69,0.0,0.0,83,0.00,,,0.00,weatherlink.com 1.10,2013-09-13 11:58:00,
2013-09-13 07:13:00,63.1,58.0,29.80,ENE,69,0.0,0.0,84,0.00,,,0.00,weatherlink.com 1.10,2013-09-13 12:13:00,
2013-09-13 07:28:00,63.2,58.0,29.80,ENE,69,0.0,0.0,83,0.00,,,0.00,weatherlink.com 1.10,2013-09-13 12:28:00,
2013-09-13 07:43:00,62.9,58.0,29.80,ENE,64,0.0,0.0,83,0.00,,,0.00,weatherlink.com 1.10,2013-09-13 12:43:00,
2013-09-13 07:58:00,62.7,58.0,29.80,ENE,64,0.0,0.0,85,0.00,,,0.00,weatherlink.com 1.10,2013-09-13 12:58:00,
2013-09-13 08:13:00,63.2,58.0,29.81,ENE,64,0.0,0.0,84,0.00,,,0.00,weatherlink.com 1.10,2013-09-13 13:13:00,
2013-09-13 08:28:00,63.3,58.0,29.82,ENE,64,0.0,0.0,84,0.00,,,0.00,weatherlink.com 1.10,2013-09-13 13:28:00,
2013-09-13 08:43:00,64.6,59.0,29.82,ENE,65,0.0,0.0,82,0.00,,,0.00,weatherlink.com 1.10,2013-09-13 13:43:00,
2013-09-13 08:58:00,66.3,60.0,29.81,ENE,65,0.0,0.0,79,0.00,,,0.00,weatherlink.com 1.10,2013-09-13 13:58:00,
2013-09-13 09:13:00,67.7,60.0,29.81,East,82,0.0,0.0,75,0.00,,,0.00,weatherlink.com 1.10,2013-09-13 14:13:00,
2013-09-13 09:28:00,68.2,60.0,29.81,East,82,0.0,0.0,74,0.00,,,0.00,weatherlink.com 1.10,2013-09-13 14:28:00,
2013-09-13 09:43:00,70.0,60.0,29.81,East,82,0.0,0.0,71,0.00,,,0.00,weatherlink.com 1.10,2013-09-13 14:43:00,
2013-09-13 09:58:00,71.0,60.0,29.81,WNW,297,1.0,3.0,69,0.00,,,0.00,weatherlink.com 1.10,2013-09-13 14:58:00,
2013-09-13 10:13:00,72.6,61.0,29.81,WNW,302,1.0,3.0,66,0.00,,,0.00,weatherlink.com 1.10,2013-09-13 15:13:00,
2013-09-13 10:28:00,74.1,59.0,29.81,SE,137,1.0,2.0,59,0.00,,,0.00,weatherlink.com 1.10,2013-09-13 15:28:00,
2013-09-13 10:43:00,74.7,56.0,29.81,East,95,7.0,11.0,52,0.00,,,0.00,weatherlink.com 1.10,2013-09-13 15:43:00,
2013-09-13 10:58:00,75.5,55.0,29.81,East,96,13.0,14.0,50,0.00,,,0.00,weatherlink.com 1.10,2013-09-13 15:58:00,
2013-09-13 11:13:00,75.4,56.0,29.81,SSE,163,6.0,15.0,52,0.00,,,0.00,weatherlink.com 1.10,2013-09-13 16:13:00,
2013-09-13 11:29:00,75.5,57.0,29.80,SSE,147,6.0,15.0,53,0.00,,,0.00,weatherlink.com 1.10,2013-09-13 16:29:00,
2013-09-13 11:44:00,76.7,57.0,29.80,SSE,165,5.0,9.0,50,0.00,,,0.00,weatherlink.com 1.10,2013-09-13 16:44:00,
2013-09-13 11:59:00,77.8,57.0,29.80,East,90,11.0,13.0,49,0.00,,,0.00,weatherlink.com 1.10,2013-09-13 16:59:00,
2013-09-13 12:14:00,79.3,57.0,29.80,SE,132,5.0,14.0,47,0.00,,,0.00,weatherlink.com 1.10,2013-09-13 17:14:00,
2013-09-13 12:29:00,78.8,54.0,29.80,East,99,11.0,14.0,43,0.00,,,0.00,weatherlink.com 1.10,2013-09-13 17:29:00,
2013-09-13 12:44:00,78.8,52.0,29.79,SSE,153,2.0,17.0,39,0.00,,,0.00,weatherlink.com 1.10,2013-09-13 17:44:00,
2013-09-13 12:59:00,79.3,51.0,29.79,SE,142,5.0,13.0,38,0.00,,,0.00,weatherlink.com 1.10,2013-09-13 17:59:00,
2013-09-13 13:14:00,78.9,53.0,29.78,ESE,110,13.0,20.0,41,0.00,,,0.00,weatherlink.com 1.10,2013-09-13 18:14:00,
2013-09-13 13:29:00,78.8,53.0,29.77,SSE,149,5.0,14.0,41,0.00,,,0.00,weatherlink.com 1.10,2013-09-13 18:29:00,
2013-09-13 13:44:00,80.5,54.0,29.77,SE,141,6.0,14.0,40,0.00,,,0.00,weatherlink.com 1.10,2013-09-13 18:44:00,
2013-09-13 13:59:00,79.3,52.0,29.76,ESE,110,8.0,13.0,39,0.00,,,0.00,weatherlink.com 1.10,2013-09-13 18:59:00,
2013-09-13 14:14:00,79.4,52.0,29.75,SE,125,8.0,16.0,38,0.00,,,0.00,weatherlink.com 1.10,2013-09-13 19:14:00,
2013-09-13 14:29:00,81.9,53.0,29.74,East,94,10.0,18.0,37,0.00,,,0.00,weatherlink.com 1.10,2013-09-13 19:29:00,
2013-09-13 14:44:00,81.0,52.0,29.73,SE,126,7.0,16.0,37,0.00,,,0.00,weatherlink.com 1.10,2013-09-13 19:44:00,
2013-09-13 14:59:00,83.0,53.0,29.73,SSW,199,8.0,14.0,36,0.00,,,0.00,weatherlink.com 1.10,2013-09-13 19:59:00,
2013-09-13 15:14:00,83.3,54.0,29.72,ESE,121,8.0,17.0,37,0.00,,,0.00,weatherlink.com 1.10,2013-09-13 20:14:00,
2013-09-13 15:29:00,83.0,53.0,29.71,ESE,117,5.0,15.0,36,0.00,,,0.00,weatherlink.com 1.10,2013-09-13 20:29:00,
2013-09-13 15:44:00,82.9,53.0,29.71,ESE,119,5.0,15.0,36,0.00,,,0.00,weatherlink.com 1.10,2013-09-13 20:44:00,
2013-09-13 15:59:00,83.4,54.0,29.70,ESE,103,11.0,18.0,36,0.00,,,0.00,weatherlink.com 1.10,2013-09-13 20:59:00,
2013-09-13 16:14:00,83.1,53.0,29.69,SE,144,9.0,17.0,36,0.00,,,0.00,weatherlink.com 1.10,2013-09-13 21:14:00,
2013-09-13 16:29:00,82.6,53.0,29.69,SSE,152,6.0,16.0,36,0.00,,,0.00,weatherlink.com 1.10,2013-09-13 21:29:00,
2013-09-13 16:44:00,82.5,53.0,29.69,SE,140,5.0,15.0,36,0.00,,,0.00,weatherlink.com 1.10,2013-09-13 21:44:00,
2013-09-13 16:59:00,83.4,54.0,29.68,SE,132,5.0,13.0,36,0.00,,,0.00,weatherlink.com 1.10,2013-09-13 21:59:00,
2013-09-13 17:14:00,81.4,53.0,29.68,SE,126,7.0,14.0,38,0.00,,,0.00,weatherlink.com 1.10,2013-09-13 22:14:00,
2013-09-13 17:29:00,80.5,52.0,29.68,SSE,150,7.0,15.0,37,0.00,,,0.00,weatherlink.com 1.10,2013-09-13 22:29:00,
2013-09-13 17:44:00,80.5,52.0,29.67,East,96,13.0,16.0,37,0.00,,,0.00,weatherlink.com 1.10,2013-09-13 22:44:00,
2013-09-13 17:59:00,81.8,52.0,29.67,East,93,8.0,18.0,35,0.00,,,0.00,weatherlink.com 1.10,2013-09-13 22:59:00,
2013-09-13 18:14:00,81.3,51.0,29.68,NE,49,7.0,16.0,35,0.00,,,0.00,weatherlink.com 1.10,2013-09-13 23:14:00,
2013-09-13 18:29:00,80.9,51.0,29.67,ESE,118,8.0,18.0,36,0.00,,,0.00,weatherlink.com 1.10,2013-09-13 23:29:00,
2013-09-13 18:44:00,80.6,51.0,29.67,SSE,151,6.0,16.0,36,0.00,,,0.00,weatherlink.com 1.10,2013-09-13 23:44:00,
2013-09-13 19:00:00,80.1,51.0,29.67,ESE,115,9.0,15.0,37,0.00,,,0.00,weatherlink.com 1.10,2013-09-14 00:00:00,
2013-09-13 19:15:00,79.4,51.0,29.67,East,92,9.0,18.0,37,0.00,,,0.00,weatherlink.com 1.10,2013-09-14 00:15:00,
2013-09-13 19:30:00,78.6,51.0,29.68,ESE,112,8.0,15.0,38,0.00,,,0.00,weatherlink.com 1.10,2013-09-14 00:30:00,
2013-09-13 19:45:00,77.8,51.0,29.68,ENE,74,7.0,14.0,39,0.00,,,0.00,weatherlink.com 1.10,2013-09-14 00:45:00,
2013-09-13 20:00:00,76.7,51.0,29.68,ESE,111,7.0,12.0,40,0.00,,,0.00,weatherlink.com 1.10,2013-09-14 01:00:00,
2013-09-13 20:15:00,75.9,51.0,29.69,SE,136,4.0,10.0,42,0.00,,,0.00,weatherlink.com 1.10,2013-09-14 01:15:00,
2013-09-13 20:30:00,75.3,52.0,29.69,ESE,112,2.0,10.0,44,0.00,,,0.00,weatherlink.com 1.10,2013-09-14 01:30:00,
2013-09-13 20:45:00,74.7,51.0,29.70,ESE,109,8.0,13.0,44,0.00,,,0.00,weatherlink.com 1.10,2013-09-14 01:45:00,
2013-09-13 21:00:00,74.0,52.0,29.70,East,97,6.0,9.0,46,0.00,,,0.00,weatherlink.com 1.10,2013-09-14 02:00:00,
2013-09-13 21:15:00,73.4,51.0,29.71,SE,132,2.0,12.0,46,0.00,,,0.00,weatherlink.com 1.10,2013-09-14 02:15:00,
2013-09-13 21:30:00,72.8,52.0,29.72,ESE,120,5.0,8.0,48,0.00,,,0.00,weatherlink.com 1.10,2013-09-14 02:30:00,
2013-09-13 21:45:00,72.4,51.0,29.73,ESE,114,0.0,5.0,48,0.00,,,0.00,weatherlink.com 1.10,2013-09-14 02:45:00,
2013-09-13 22:00:00,71.7,51.0,29.73,East,97,0.0,0.0,49,0.00,,,0.00,weatherlink.com 1.10,2013-09-14 03:00:00,
2013-09-13 22:15:00,71.5,52.0,29.74,ESE,121,0.0,3.0,50,0.00,,,0.00,weatherlink.com 1.10,2013-09-14 03:15:00,
2013-09-13 22:30:00,71.3,52.0,29.74,East,93,0.0,3.0,51,0.00,,,0.00,weatherlink.com 1.10,2013-09-14 03:30:00,
2013-09-13 22:45:00,71.0,52.0,29.75,ESE,117,1.0,5.0,51,0.00,,,0.00,weatherlink.com 1.10,2013-09-14 03:45:00,
2013-09-13 23:00:00,70.6,52.0,29.75,ESE,123,0.0,4.0,52,0.00,,,0.00,weatherlink.com 1.10,2013-09-14 04:00:00,
2013-09-13 23:15:00,70.4,52.0,29.75,SE,128,0.0,5.0,53,0.00,,,0.00,weatherlink.com 1.10,2013-09-14 04:15:00,
2013-09-13 23:30:00,69.6,52.0,29.75,SE,126,0.0,1.0,54,0.00,,,0.00,weatherlink.com 1.10,2013-09-14 04:30:00,
2013-09-13 23:45:00,69.7,52.0,29.75,East,84,0.0,2.0,54,0.00,,,0.00,weatherlink.com 1.10,2013-09-14 04:45:00,